sensor_id;sensor_type;location;lat;lon;timestamp;pressure;altitude;pressure_sealevel;temperature;humidity
14757;BME280;62446;53.214;10.398;2022-12-07T00:21:01;100875.56;;;1.56;93.68
14757;BME280;62446;53.214;10.398;2022-12-07T00:24:06;100864.13;;;1.94;89.12
14757;BME280;62446;53.214;10.398;2022-12-07T00:27:09;100865.97;;;2.10;88.23
14757;BME280;62446;53.214;10.398;2022-12-07T00:30:14;100862.53;;;2.16;87.14
14757;BME280;62446;53.214;10.398;2022-12-07T00:33:18;100869.69;;;2.17;86.71
14757;BME280;62446;53.214;10.398;2022-12-07T00:36:24;100859.47;;;2.19;86.66
14757;BME280;62446;53.214;10.398;2022-12-07T00:39:29;100863.88;;;2.20;86.92
14757;BME280;62446;53.214;10.398;2022-12-07T00:42:33;100858.28;;;2.22;86.29
14757;BME280;62446;53.214;10.398;2022-12-07T00:45:36;100859.09;;;2.30;86.12
14757;BME280;62446;53.214;10.398;2022-12-07T00:48:41;100848.13;;;2.47;86.42
14757;BME280;62446;53.214;10.398;2022-12-07T00:51:47;100840.84;;;2.39;85.49
14757;BME280;62446;53.214;10.398;2022-12-07T00:54:52;100820.63;;;2.33;86.20
14757;BME280;62446;53.214;10.398;2022-12-07T00:57:55;100806.72;;;2.28;86.13
14757;BME280;62446;53.214;10.398;2022-12-07T01:01:00;100801.91;;;2.38;85.97
14757;BME280;62446;53.214;10.398;2022-12-07T01:04:04;100809.19;;;2.46;85.60
14757;BME280;62446;53.214;10.398;2022-12-07T01:07:09;100815.63;;;2.45;85.75
14757;BME280;62446;53.214;10.398;2022-12-07T01:10:14;100813.22;;;2.59;84.92
14757;BME280;62446;53.214;10.398;2022-12-07T01:13:18;100811.53;;;2.58;84.50
14757;BME280;62446;53.214;10.398;2022-12-07T01:16:23;100808.81;;;2.49;84.78
14757;BME280;62446;53.214;10.398;2022-12-07T01:19:27;100810.66;;;2.57;84.35
14757;BME280;62446;53.214;10.398;2022-12-07T01:22:36;100812.19;;;2.51;84.83
14757;BME280;62446;53.214;10.398;2022-12-07T01:25:40;100813.47;;;2.41;85.12
14757;BME280;62446;53.214;10.398;2022-12-07T01:28:44;100804.88;;;2.60;83.78
14757;BME280;62446;53.214;10.398;2022-12-07T01:31:48;100811.66;;;2.64;83.81
14757;BME280;62446;53.214;10.398;2022-12-07T01:34:53;100804.53;;;2.63;84.12
14757;BME280;62446;53.214;10.398;2022-12-07T01:37:58;100799.75;;;2.65;83.67
14757;BME280;62446;53.214;10.398;2022-12-07T01:41:02;100798.22;;;2.63;84.04
14757;BME280;62446;53.214;10.398;2022-12-07T01:44:19;100799.69;;;2.74;83.43
14757;BME280;62446;53.214;10.398;2022-12-07T01:47:24;100790.00;;;2.71;84.11
14757;BME280;62446;53.214;10.398;2022-12-07T01:50:28;100789.22;;;2.62;83.91
14757;BME280;62446;53.214;10.398;2022-12-07T01:53:38;100777.97;;;2.65;84.57
14757;BME280;62446;53.214;10.398;2022-12-07T19:22:53;100655.63;;;-1.30;88.88
14757;BME280;62446;53.214;10.398;2022-12-07T19:25:57;100660.28;;;-1.40;86.74
14757;BME280;62446;53.214;10.398;2022-12-07T19:29:01;100657.63;;;-1.32;85.37
14757;BME280;62446;53.214;10.398;2022-12-07T19:32:05;100648.81;;;-1.34;85.12
14757;BME280;62446;53.214;10.398;2022-12-07T19:35:10;100652.34;;;-1.16;84.73
14757;BME280;62446;53.214;10.398;2022-12-07T19:38:15;100644.56;;;-1.10;83.05
14757;BME280;62446;53.214;10.398;2022-12-07T19:41:19;100639.72;;;-1.07;83.53
14757;BME280;62446;53.214;10.398;2022-12-07T19:44:39;100635.19;;;-1.24;84.37
14757;BME280;62446;53.214;10.398;2022-12-07T19:47:43;100630.78;;;-1.25;84.28
14757;BME280;62446;53.214;10.398;2022-12-07T19:50:46;100632.53;;;-1.16;85.10
14757;BME280;62446;53.214;10.398;2022-12-07T19:53:52;100632.06;;;-1.11;83.99
14757;BME280;62446;53.214;10.398;2022-12-07T19:56:56;100626.00;;;-1.05;83.73
14757;BME280;62446;53.214;10.398;2022-12-07T20:00:00;100629.06;;;-1.00;84.05
14757;BME280;62446;53.214;10.398;2022-12-07T20:03:06;100620.69;;;-0.89;82.76
14757;BME280;62446;53.214;10.398;2022-12-07T20:06:11;100620.03;;;-0.83;82.79
14757;BME280;62446;53.214;10.398;2022-12-07T20:09:17;100616.00;;;-0.79;81.99
14757;BME280;62446;53.214;10.398;2022-12-07T20:12:20;100613.66;;;-0.73;82.88
14757;BME280;62446;53.214;10.398;2022-12-07T20:15:42;100608.59;;;-0.68;81.80
14757;BME280;62446;53.214;10.398;2022-12-07T20:18:45;100604.50;;;-0.72;82.92
14757;BME280;62446;53.214;10.398;2022-12-07T20:21:57;100606.00;;;-0.78;83.04
14757;BME280;62446;53.214;10.398;2022-12-07T20:25:02;100598.41;;;-0.74;83.09
14757;BME280;62446;53.214;10.398;2022-12-07T20:28:06;100590.63;;;-0.78;82.66
14757;BME280;62446;53.214;10.398;2022-12-07T20:31:11;100585.53;;;-0.81;82.92
14757;BME280;62446;53.214;10.398;2022-12-07T20:34:15;100588.59;;;-0.75;82.90
14757;BME280;62446;53.214;10.398;2022-12-07T20:37:18;100594.34;;;-0.79;82.85
14757;BME280;62446;53.214;10.398;2022-12-07T20:40:24;100581.63;;;-0.78;82.78
14757;BME280;62446;53.214;10.398;2022-12-07T20:43:28;100584.28;;;-0.95;82.83
14757;BME280;62446;53.214;10.398;2022-12-07T20:46:31;100575.41;;;-0.70;81.42
14757;BME280;62446;53.214;10.398;2022-12-07T20:49:35;100576.13;;;-0.60;81.00
14757;BME280;62446;53.214;10.398;2022-12-07T20:52:39;100574.72;;;-0.72;81.07
14757;BME280;62446;53.214;10.398;2022-12-07T20:55:44;100578.19;;;-0.88;81.97
14757;BME280;62446;53.214;10.398;2022-12-07T20:58:48;100562.81;;;-0.88;81.36
14757;BME280;62446;53.214;10.398;2022-12-07T21:01:52;100559.75;;;-0.93;81.75
14757;BME280;62446;53.214;10.398;2022-12-07T21:04:56;100563.53;;;-0.78;83.17
14757;BME280;62446;53.214;10.398;2022-12-07T21:08:00;100560.22;;;-0.63;82.62
14757;BME280;62446;53.214;10.398;2022-12-07T21:11:09;100562.25;;;-0.49;81.50
14757;BME280;62446;53.214;10.398;2022-12-07T21:14:12;100557.50;;;-0.55;81.74
14757;BME280;62446;53.214;10.398;2022-12-07T21:17:16;100541.88;;;-0.69;82.21
14757;BME280;62446;53.214;10.398;2022-12-07T21:20:20;100543.09;;;-0.64;82.24
14757;BME280;62446;53.214;10.398;2022-12-07T21:23:24;100547.38;;;-0.45;81.83
14757;BME280;62446;53.214;10.398;2022-12-07T21:26:30;100552.47;;;-0.50;82.43
14757;BME280;62446;53.214;10.398;2022-12-07T21:29:35;100554.13;;;-0.57;81.77
14757;BME280;62446;53.214;10.398;2022-12-07T21:32:46;100547.03;;;-0.50;81.55
14757;BME280;62446;53.214;10.398;2022-12-07T21:35:50;100552.78;;;-0.45;82.83
14757;BME280;62446;53.214;10.398;2022-12-07T21:38:54;100547.75;;;-0.39;82.21
14757;BME280;62446;53.214;10.398;2022-12-07T21:41:59;100545.72;;;-0.29;83.17
14757;BME280;62446;53.214;10.398;2022-12-07T21:45:03;100546.09;;;-0.16;82.91
14757;BME280;62446;53.214;10.398;2022-12-07T21:48:07;100529.13;;;0.07;84.43
14757;BME280;62446;53.214;10.398;2022-12-07T21:51:12;100537.59;;;0.28;83.70
14757;BME280;62446;53.214;10.398;2022-12-07T21:54:16;100535.59;;;0.31;82.81
